createdAt,value
2022-08-02T00:00:57.285Z,16.65
2022-08-02T00:03:24.806Z,15.02
2022-08-02T00:05:53.562Z,13.23
2022-08-02T00:08:22.053Z,10.70
2022-08-02T00:10:49.621Z,11.85
2022-08-02T00:13:16.641Z,9.45
2022-08-02T00:15:43.585Z,10.75
2022-08-02T00:18:10.507Z,10.18
2022-08-02T00:20:37.593Z,12.30
2022-08-02T00:23:04.590Z,8.68
2022-08-02T00:25:31.598Z,14.40
2022-08-02T00:27:58.540Z,11.10
2022-08-02T00:30:25.554Z,8.95
2022-08-02T00:32:52.519Z,9.20
2022-08-02T00:35:19.552Z,9.40
2022-08-02T00:37:46.550Z,14.55
2022-08-02T00:40:13.637Z,11.10
2022-08-02T00:42:40.820Z,11.55
2022-08-02T00:45:08.549Z,11.25
2022-08-02T00:47:35.825Z,9.20
2022-08-02T00:50:02.880Z,13.57
2022-08-02T00:52:29.857Z,12.50
2022-08-02T00:54:56.834Z,10.52
2022-08-02T00:57:23.812Z,9.52
2022-08-02T00:59:50.758Z,9.57
2022-08-02T01:02:17.915Z,10.40
2022-08-02T01:04:45.180Z,7.13
2022-08-02T01:07:13.891Z,12.10
2022-08-02T01:09:45.471Z,12.27
2022-08-02T01:12:13.667Z,11.85
2022-08-02T01:14:48.628Z,21.30
2022-08-02T01:17:52.121Z,18.88
2022-08-02T01:21:06.406Z,20.80
2022-08-02T01:23:57.853Z,22.05
2022-08-02T01:26:35.306Z,21.45
2022-08-02T01:29:19.017Z,19.23
2022-08-02T01:32:11.767Z,19.95
2022-08-02T01:35:15.386Z,12.30
2022-08-02T01:37:52.543Z,14.00
2022-08-02T01:40:28.932Z,12.77
2022-08-02T01:42:57.876Z,15.05
2022-08-02T01:45:33.739Z,10.73
2022-08-02T01:48:01.877Z,10.63
2022-08-02T01:50:34.102Z,10.90
2022-08-02T01:53:12.427Z,9.45
2022-08-02T01:55:57.917Z,9.88
2022-08-02T01:58:30.146Z,10.52
2022-08-02T02:00:58.758Z,10.45
2022-08-02T02:03:27.982Z,7.93
2022-08-02T02:05:57.983Z,11.02
2022-08-02T02:08:45.590Z,8.98
2022-08-02T02:12:06.075Z,14.48
2022-08-02T02:14:02.300Z,25.08
2022-08-02T02:16:32.100Z,23.50
2022-08-02T02:19:02.250Z,23.65
2022-08-02T02:21:29.548Z,21.10
2022-08-02T02:23:59.320Z,19.25
2022-08-02T02:26:31.694Z,20.55
2022-08-02T02:29:02.507Z,17.35
2022-08-02T02:31:44.417Z,15.65
2022-08-02T02:34:25.591Z,22.88
2022-08-02T02:36:53.623Z,25.17
2022-08-02T02:39:26.266Z,29.23
2022-08-02T02:41:55.417Z,23.77
2022-08-02T02:44:23.812Z,31.40
2022-08-02T02:46:54.829Z,15.77
2022-08-02T02:49:23.654Z,11.52
2022-08-02T02:51:51.686Z,12.70
2022-08-02T02:54:32.083Z,10.00
2022-08-02T02:57:04.202Z,13.27
2022-08-02T02:59:32.856Z,12.15
2022-08-02T03:02:00.532Z,11.50
2022-08-02T03:04:55.162Z,11.90
2022-08-02T03:07:16.436Z,13.48
2022-08-02T03:09:43.700Z,11.82
2022-08-02T03:12:11.639Z,10.20
2022-08-02T03:14:44.967Z,10.90
2022-08-02T03:17:16.751Z,7.82
2022-08-02T03:19:44.888Z,10.65
2022-08-02T03:22:12.118Z,9.77
2022-08-02T03:24:39.396Z,9.80
2022-08-02T03:27:06.358Z,10.98
2022-08-02T03:29:34.796Z,13.57
2022-08-02T03:32:02.118Z,12.77
2022-08-02T03:34:29.566Z,15.00
2022-08-02T03:36:58.188Z,14.00
2022-08-02T03:39:27.094Z,9.80
2022-08-02T03:41:55.280Z,13.55
2022-08-02T03:44:23.075Z,12.10
2022-08-02T03:46:50.881Z,7.72
2022-08-02T03:49:18.569Z,10.20
2022-08-02T03:51:46.709Z,16.60
2022-08-02T03:54:13.944Z,10.02
2022-08-02T03:56:41.237Z,13.75
2022-08-02T03:59:14.246Z,14.95
2022-08-02T04:01:42.359Z,18.05
2022-08-02T04:04:09.743Z,12.30
2022-08-02T04:06:39.966Z,10.88
2022-08-02T04:09:09.906Z,11.15
2022-08-02T04:11:37.985Z,16.48
2022-08-02T04:14:11.358Z,18.63
2022-08-02T04:16:52.598Z,24.73
2022-08-02T04:19:43.124Z,21.63
2022-08-02T04:22:17.364Z,22.38
2022-08-02T04:24:51.067Z,22.25
2022-08-02T04:27:50.347Z,12.57
2022-08-02T04:30:08.206Z,15.98
2022-08-02T04:32:36.124Z,12.63
2022-08-02T04:35:19.959Z,15.93
2022-08-02T04:38:09.002Z,14.45
2022-08-02T04:40:35.009Z,9.27
2022-08-02T04:43:01.995Z,16.08
2022-08-02T04:45:30.642Z,11.15
2022-08-02T04:48:05.942Z,11.00
2022-08-02T04:50:34.175Z,11.18
2022-08-02T04:53:01.745Z,11.60
2022-08-02T04:55:29.887Z,10.18
2022-08-02T04:57:58.904Z,12.73
2022-08-02T05:00:27.990Z,13.60
2022-08-02T05:02:57.365Z,11.70
2022-08-02T05:05:24.488Z,10.80
2022-08-02T05:07:51.710Z,9.23
2022-08-02T05:10:19.305Z,10.75
2022-08-02T05:12:46.310Z,8.32
2022-08-02T05:15:16.722Z,11.25
2022-08-02T05:17:46.769Z,11.48
2022-08-02T05:20:19.207Z,10.90
2022-08-02T05:22:47.234Z,9.20
2022-08-02T05:25:14.783Z,10.13
2022-08-02T05:27:42.093Z,8.90
2022-08-02T05:30:09.970Z,8.32
2022-08-02T05:32:44.914Z,9.20
2022-08-02T05:35:12.008Z,11.13
2022-08-02T05:37:39.269Z,12.27
2022-08-02T05:40:12.905Z,12.23
2022-08-02T05:42:41.092Z,10.68
2022-08-02T05:45:08.675Z,11.90
2022-08-02T05:47:36.062Z,10.02
2022-08-02T05:50:04.670Z,8.55
2022-08-02T05:53:04.954Z,12.38
2022-08-02T05:55:40.775Z,11.75
2022-08-02T05:58:18.455Z,11.10
2022-08-02T06:00:49.813Z,7.50
2022-08-02T06:03:37.208Z,9.93
2022-08-02T06:06:14.478Z,8.65
2022-08-02T06:08:48.763Z,8.68
2022-08-02T06:11:21.383Z,14.45
2022-08-02T06:13:48.774Z,8.93
2022-08-02T06:16:18.005Z,5.88
2022-08-02T06:19:00.688Z,10.45
2022-08-02T06:22:31.271Z,10.23
2022-08-02T06:24:19.931Z,6.28
2022-08-02T06:26:52.684Z,10.90
2022-08-02T06:29:23.094Z,8.30
2022-08-02T06:31:53.602Z,10.25
2022-08-02T06:34:20.962Z,4.63
2022-08-02T06:37:19.926Z,10.00
2022-08-02T06:39:50.359Z,10.93
2022-08-02T06:43:02.740Z,4.43
2022-08-02T06:45:29.789Z,5.65
2022-08-02T06:47:56.705Z,4.20
2022-08-02T06:50:23.761Z,8.68
2022-08-02T06:52:50.765Z,5.28
2022-08-02T06:55:17.810Z,6.57
2022-08-02T06:57:44.819Z,7.32
2022-08-02T07:00:12.595Z,8.02
2022-08-02T07:02:39.968Z,5.32
2022-08-02T07:05:08.164Z,8.20
2022-08-02T07:07:35.241Z,8.95
2022-08-02T07:10:02.241Z,8.07
2022-08-02T07:12:31.123Z,5.80
2022-08-02T07:15:01.391Z,4.97
2022-08-02T07:17:29.770Z,4.85
2022-08-02T07:19:57.630Z,7.45
2022-08-02T07:22:27.063Z,6.03
2022-08-02T07:24:56.799Z,5.53
2022-08-02T07:27:24.928Z,6.55
2022-08-02T07:29:52.303Z,6.47
2022-08-02T07:32:22.880Z,6.82
2022-08-02T07:34:51.110Z,7.40
2022-08-02T07:37:35.470Z,5.57
2022-08-02T07:40:13.717Z,4.78
2022-08-02T07:42:43.513Z,7.25
2022-08-02T07:45:12.628Z,6.22
2022-08-02T07:47:41.161Z,7.00
2022-08-02T07:50:09.844Z,9.60
2022-08-02T07:52:36.958Z,6.78
2022-08-02T07:55:05.735Z,4.97
2022-08-02T07:57:33.080Z,5.18
2022-08-02T08:00:00.033Z,4.60
2022-08-02T08:02:27.183Z,4.45
2022-08-02T08:04:54.196Z,4.05
2022-08-02T08:07:21.290Z,8.82
2022-08-02T08:09:51.216Z,4.90
2022-08-02T08:12:23.504Z,5.07
2022-08-02T08:14:50.476Z,5.07
2022-08-02T08:17:17.549Z,8.23
2022-08-02T08:19:50.929Z,3.28
2022-08-02T08:22:22.104Z,4.05
2022-08-02T08:24:49.356Z,4.90
2022-08-02T08:27:22.526Z,4.55
2022-08-02T08:29:50.348Z,4.65
2022-08-02T08:32:18.466Z,5.82
2022-08-02T08:34:47.198Z,4.28
2022-08-02T08:37:16.973Z,3.22
2022-08-02T08:39:56.856Z,4.82
2022-08-02T08:42:27.401Z,6.53
2022-08-02T08:44:58.708Z,3.55
2022-08-02T08:47:42.311Z,3.25
2022-08-02T08:50:25.673Z,4.00
2022-08-02T08:53:04.019Z,4.57
2022-08-02T08:55:33.297Z,7.07
2022-08-02T08:58:01.580Z,3.35
2022-08-02T09:00:31.972Z,5.65
2022-08-02T09:03:01.637Z,4.07
2022-08-02T09:05:28.580Z,2.95
2022-08-02T09:07:55.501Z,3.25
2022-08-02T09:10:38.959Z,3.38
2022-08-02T09:13:38.284Z,5.30
2022-08-02T09:16:11.266Z,3.97
2022-08-02T09:18:44.748Z,5.88
2022-08-02T09:21:15.025Z,5.72
2022-08-02T09:23:53.036Z,4.13
2022-08-02T09:26:23.281Z,4.03
2022-08-02T09:28:53.163Z,4.20
2022-08-02T09:31:22.855Z,4.75
2022-08-02T09:33:59.006Z,4.38
2022-08-02T09:36:28.804Z,6.13
2022-08-02T09:39:02.374Z,5.38
2022-08-02T09:41:32.663Z,4.65
2022-08-02T09:44:05.390Z,5.03
2022-08-02T09:46:39.365Z,4.53
2022-08-02T09:49:19.465Z,4.35
2022-08-02T09:51:46.808Z,4.68
2022-08-02T09:54:24.357Z,5.00
2022-08-02T09:56:58.494Z,6.28
2022-08-02T09:59:27.518Z,3.38
2022-08-02T10:02:01.318Z,7.00
2022-08-02T10:04:33.705Z,3.20
2022-08-02T10:07:04.547Z,6.47
2022-08-02T10:09:32.512Z,6.20
2022-08-02T10:12:01.657Z,4.18
2022-08-02T10:14:30.790Z,9.18
2022-08-02T10:16:58.762Z,6.50
2022-08-02T10:20:02.547Z,9.07
2022-08-02T10:22:16.000Z,6.25
2022-08-02T10:24:48.310Z,6.97
2022-08-02T10:27:22.115Z,5.75
2022-08-02T10:29:55.301Z,9.07
2022-08-02T10:32:40.474Z,4.97
2022-08-02T10:35:20.232Z,8.95
2022-08-02T10:38:08.035Z,5.47
2022-08-02T10:40:48.935Z,7.43
2022-08-02T10:43:43.177Z,5.70
2022-08-02T10:46:38.569Z,5.50
2022-08-02T10:52:00.788Z,3.70
2022-08-02T10:54:34.390Z,6.53
2022-08-02T10:57:02.101Z,5.70
2022-08-02T10:59:36.311Z,6.47
2022-08-02T11:02:06.633Z,4.07
2022-08-02T11:04:39.687Z,7.65
2022-08-02T11:07:18.242Z,6.53
2022-08-02T11:09:48.218Z,9.43
2022-08-02T11:12:18.974Z,20.15
2022-08-02T11:15:03.934Z,7.13
2022-08-02T11:17:56.025Z,6.75
2022-08-02T11:20:24.713Z,6.05
2022-08-02T11:22:54.251Z,4.30
2022-08-02T11:25:24.213Z,3.63
2022-08-02T11:28:10.288Z,3.28
2022-08-02T11:30:37.772Z,7.65
2022-08-02T11:33:05.265Z,4.63
2022-08-02T11:35:39.207Z,5.80
2022-08-02T11:38:23.982Z,8.15
2022-08-02T11:40:50.979Z,7.18
2022-08-02T11:43:27.484Z,10.27
2022-08-02T11:45:56.238Z,12.23
2022-08-02T11:48:35.336Z,7.15
2022-08-02T11:51:14.965Z,6.32
2022-08-02T11:53:46.144Z,5.75
2022-08-02T11:56:14.608Z,5.18
2022-08-02T11:59:06.599Z,5.35
2022-08-02T12:01:44.865Z,4.78
2022-08-02T12:04:19.335Z,4.70
2022-08-02T12:06:58.802Z,6.63
2022-08-02T12:09:28.187Z,5.55
2022-08-02T12:11:57.225Z,5.47
2022-08-02T12:14:26.842Z,4.05
2022-08-02T12:17:13.316Z,5.47
2022-08-02T12:19:42.443Z,5.85
2022-08-02T12:22:18.588Z,3.65
2022-08-02T12:24:49.340Z,5.15
2022-08-02T12:27:53.310Z,3.95
2022-08-02T12:30:27.441Z,6.03
2022-08-02T12:33:12.887Z,3.42
2022-08-02T12:35:40.303Z,6.47
2022-08-02T12:38:11.782Z,3.75
2022-08-02T12:40:38.887Z,3.17
2022-08-02T12:43:08.646Z,7.20
2022-08-02T12:45:57.391Z,3.38
2022-08-02T12:49:16.002Z,5.93
2022-08-02T12:51:51.214Z,3.30
2022-08-02T12:54:29.153Z,4.10
2022-08-02T12:57:11.191Z,4.45
2022-08-02T12:59:41.480Z,4.50
2022-08-02T13:02:12.251Z,3.38
2022-08-02T13:04:40.313Z,5.25
2022-08-02T13:07:08.993Z,3.63
2022-08-02T13:09:41.182Z,4.18
2022-08-02T13:12:08.929Z,4.40
2022-08-02T13:14:40.824Z,3.38
2022-08-02T13:17:10.458Z,7.72
2022-08-02T13:19:38.650Z,3.45
2022-08-02T13:22:06.109Z,7.43
2022-08-02T13:24:39.911Z,3.20
2022-08-02T13:27:21.387Z,6.68
2022-08-02T13:29:50.505Z,4.88
2022-08-02T13:32:17.927Z,4.80
2022-08-02T13:34:45.020Z,4.10
2022-08-02T13:37:12.179Z,3.50
2022-08-02T13:39:39.281Z,3.47
2022-08-02T13:42:07.147Z,5.57
2022-08-02T13:44:35.192Z,4.72
2022-08-02T13:47:03.097Z,3.80
2022-08-02T13:49:51.425Z,9.98
2022-08-02T13:52:17.804Z,7.40
2022-08-02T13:54:44.915Z,6.35
2022-08-02T13:57:11.921Z,4.32
2022-08-02T13:59:56.032Z,4.80
2022-08-02T14:02:25.428Z,4.05
2022-08-02T14:04:52.372Z,3.90
2022-08-02T14:07:19.496Z,4.95
2022-08-02T14:09:46.900Z,4.07
2022-08-02T14:12:14.386Z,3.25
2022-08-02T14:14:41.702Z,5.72
2022-08-02T14:17:08.658Z,4.88
2022-08-02T14:19:35.664Z,10.63
2022-08-02T14:22:11.142Z,8.25
2022-08-02T14:24:40.190Z,4.70
2022-08-02T14:27:07.174Z,4.93
2022-08-02T14:29:34.642Z,5.95
2022-08-02T14:32:01.921Z,3.85
2022-08-02T14:34:29.560Z,3.55
2022-08-02T14:36:57.001Z,3.70
2022-08-02T14:39:24.049Z,4.18
2022-08-02T14:42:00.179Z,4.35
2022-08-02T14:44:31.146Z,3.38
2022-08-02T14:46:58.215Z,3.95
2022-08-02T14:49:26.782Z,4.03
2022-08-02T14:51:58.124Z,3.97
2022-08-02T14:54:30.375Z,10.43
2022-08-02T14:57:03.418Z,10.07
2022-08-02T14:59:30.710Z,4.53
2022-08-02T15:01:58.998Z,5.28
2022-08-02T15:04:26.794Z,4.30
2022-08-02T15:06:54.691Z,6.10
2022-08-02T15:09:22.509Z,4.40
2022-08-02T15:11:49.905Z,5.95
2022-08-02T15:14:21.683Z,6.32
2022-08-02T15:16:57.206Z,6.03
2022-08-02T15:19:28.714Z,9.68
2022-08-02T15:22:13.084Z,11.38
2022-08-02T15:24:44.826Z,7.85
2022-08-02T15:27:14.787Z,11.45
2022-08-02T15:29:43.712Z,4.35
2022-08-02T15:32:11.679Z,5.47
2022-08-02T15:34:39.451Z,7.00
2022-08-02T15:37:06.382Z,3.85
2022-08-02T15:39:33.355Z,5.75
2022-08-02T15:42:00.344Z,9.38
2022-08-02T15:44:27.433Z,19.35
2022-08-02T15:46:54.675Z,11.48
2022-08-02T15:49:24.134Z,7.80
2022-08-02T15:51:52.483Z,4.30
2022-08-02T15:54:19.873Z,8.55
2022-08-02T15:56:48.456Z,4.57
2022-08-02T15:59:15.749Z,5.68
2022-08-02T16:01:47.205Z,7.25
2022-08-02T16:04:16.226Z,3.72
2022-08-02T16:06:44.044Z,4.10
2022-08-02T16:09:11.454Z,4.05
2022-08-02T16:11:38.744Z,4.43
2022-08-02T16:14:05.861Z,4.28
2022-08-02T16:16:34.998Z,4.63
2022-08-02T16:19:47.810Z,5.80
2022-08-02T16:21:52.148Z,5.22
2022-08-02T16:24:19.776Z,5.28
2022-08-02T16:26:46.809Z,4.30
2022-08-02T16:29:14.151Z,6.05
2022-08-02T16:31:47.635Z,5.85
2022-08-02T16:34:15.695Z,6.82
2022-08-02T16:36:42.974Z,4.35
2022-08-02T16:39:09.967Z,6.03
2022-08-02T16:41:50.438Z,4.28
2022-08-02T16:44:27.671Z,6.25
2022-08-02T16:47:00.891Z,5.13
2022-08-02T16:50:07.259Z,4.45
2022-08-02T16:52:16.828Z,8.13
2022-08-02T16:54:49.485Z,8.02
2022-08-02T16:57:20.129Z,5.93
2022-08-02T16:59:58.048Z,5.28
2022-08-02T17:02:27.792Z,5.07
2022-08-02T17:04:55.160Z,5.72
2022-08-02T17:08:08.498Z,6.13
2022-08-02T17:10:10.356Z,9.75
2022-08-02T17:12:38.700Z,11.07
2022-08-02T17:16:08.036Z,7.75
2022-08-02T17:17:57.617Z,10.27
2022-08-02T17:20:24.771Z,8.93
2022-08-02T17:22:52.535Z,7.47
2022-08-02T17:25:20.779Z,11.07
2022-08-02T17:27:55.977Z,11.82
2022-08-02T17:30:26.467Z,9.35
2022-08-02T17:32:54.627Z,10.45
2022-08-02T17:35:24.966Z,8.65
2022-08-02T17:37:54.551Z,6.90
2022-08-02T17:40:26.946Z,10.55
2022-08-02T17:42:53.893Z,17.50
2022-08-02T17:48:07.784Z,13.68
2022-08-02T17:50:36.130Z,11.68
2022-08-02T17:53:04.734Z,12.40
2022-08-02T17:55:33.248Z,21.65
2022-08-02T17:58:00.249Z,24.05
2022-08-02T18:00:36.211Z,20.95
2022-08-02T18:03:07.917Z,12.73
2022-08-02T18:05:40.055Z,10.75
2022-08-02T18:11:08.493Z,29.25
2022-08-02T18:13:36.389Z,30.58
2022-08-02T18:16:06.003Z,31.15
2022-08-02T18:18:48.522Z,23.25
2022-08-02T18:21:22.638Z,22.10
2022-08-02T18:23:58.092Z,25.90
2022-08-02T18:26:27.944Z,27.77
2022-08-02T18:28:57.496Z,29.13
2022-08-02T18:31:25.417Z,25.00
2022-08-02T18:33:55.016Z,16.40
2022-08-02T18:36:28.079Z,13.52
2022-08-02T18:38:55.030Z,10.05
2022-08-02T18:41:22.264Z,9.15
2022-08-02T18:43:51.704Z,6.80
2022-08-02T18:46:20.070Z,8.55
2022-08-02T18:48:48.119Z,10.40
2022-08-02T18:51:19.075Z,10.02
2022-08-02T18:53:51.249Z,12.20
2022-08-02T18:56:20.339Z,10.77
2022-08-02T18:58:55.981Z,9.50
2022-08-02T19:01:32.469Z,8.63
2022-08-02T19:04:02.643Z,7.38
2022-08-02T19:06:29.890Z,9.40
2022-08-02T19:09:04.994Z,6.50
2022-08-02T19:11:38.691Z,7.88
2022-08-02T19:14:08.413Z,6.88
2022-08-02T19:16:37.071Z,8.02
2022-08-02T19:19:06.455Z,5.95
2022-08-02T19:22:18.342Z,5.82
2022-08-02T19:24:20.837Z,8.32
2022-08-02T19:26:51.975Z,6.18
2022-08-02T19:29:42.083Z,6.65
2022-08-02T19:32:40.742Z,8.18
2022-08-02T19:34:56.057Z,8.43
2022-08-02T19:37:23.199Z,8.98
2022-08-02T19:39:50.998Z,8.52
2022-08-02T19:42:18.795Z,7.07
2022-08-02T19:44:46.572Z,7.45
2022-08-02T19:47:19.457Z,8.82
2022-08-02T19:49:48.815Z,11.48
2022-08-02T19:52:21.772Z,11.77
2022-08-02T19:54:54.371Z,11.88
2022-08-02T19:57:23.227Z,12.05
2022-08-02T19:59:52.637Z,14.10
2022-08-02T20:02:21.229Z,12.82
2022-08-02T20:04:50.191Z,9.80
2022-08-02T20:07:54.616Z,11.55
2022-08-02T20:10:11.180Z,11.23
2022-08-02T20:12:42.459Z,9.32
2022-08-02T20:15:14.868Z,8.48
2022-08-02T20:17:47.698Z,10.18
2022-08-02T20:20:16.238Z,12.23
2022-08-02T20:23:01.656Z,10.63
2022-08-02T20:25:50.640Z,14.20
2022-08-02T20:28:22.359Z,9.45
2022-08-02T20:30:49.925Z,13.75
2022-08-02T20:33:21.496Z,12.27
2022-08-02T20:35:53.138Z,22.05
2022-08-02T20:38:27.925Z,21.35
2022-08-02T20:40:56.985Z,27.73
2022-08-02T20:43:31.289Z,32.35
2022-08-02T20:46:00.418Z,35.17
2022-08-02T20:48:29.895Z,32.83
2022-08-02T20:50:57.301Z,35.75
2022-08-02T20:53:25.709Z,28.30
2022-08-02T20:55:57.053Z,44.88
2022-08-02T20:58:26.802Z,44.13
2022-08-02T21:00:59.026Z,33.65
2022-08-02T21:03:38.986Z,28.98
2022-08-02T21:06:11.486Z,23.50
2022-08-02T21:08:42.124Z,18.65
2022-08-02T21:11:14.033Z,20.10
2022-08-02T21:13:46.372Z,20.75
2022-08-02T21:16:18.468Z,13.48
2022-08-02T21:18:48.966Z,18.27
2022-08-02T21:21:16.788Z,21.60
2022-08-02T21:23:48.448Z,19.90
2022-08-02T21:26:19.616Z,19.50
2022-08-02T21:28:53.031Z,22.83
2022-08-02T21:31:20.375Z,22.83
2022-08-02T21:33:58.733Z,19.98
2022-08-02T21:36:30.687Z,17.42
2022-08-02T21:39:08.807Z,20.73
2022-08-02T21:41:46.576Z,14.45
2022-08-02T21:44:22.796Z,16.38
2022-08-02T21:46:53.370Z,12.75
2022-08-02T21:49:40.544Z,12.52
2022-08-02T21:52:10.127Z,13.82
2022-08-02T21:54:40.044Z,14.82
2022-08-02T21:57:07.741Z,12.95
2022-08-02T21:59:46.875Z,11.88
2022-08-02T22:02:16.546Z,10.52
2022-08-02T22:04:48.077Z,13.10
2022-08-02T22:07:17.689Z,13.20
2022-08-02T22:09:52.669Z,10.55
2022-08-02T22:12:20.082Z,12.25
2022-08-02T22:14:54.908Z,14.27
2022-08-02T22:17:46.829Z,16.45
2022-08-02T22:20:15.435Z,13.05
2022-08-02T22:22:45.525Z,17.27
2022-08-02T22:25:27.298Z,13.82
2022-08-02T22:28:35.237Z,11.43
2022-08-02T22:30:52.693Z,12.48
2022-08-02T22:33:46.640Z,34.50
2022-08-02T22:36:28.268Z,43.75
2022-08-02T22:38:55.841Z,33.90
2022-08-02T22:41:22.942Z,35.47
2022-08-02T22:43:50.184Z,30.55
2022-08-02T22:46:17.470Z,28.50
2022-08-02T22:48:45.650Z,25.52
2022-08-02T22:51:13.759Z,22.05
2022-08-02T22:53:42.538Z,23.05
2022-08-02T22:56:10.027Z,23.75
2022-08-02T22:58:40.203Z,16.55
2022-08-02T22:58:43.327Z,15.50
2022-08-02T22:59:06.570Z,23.83
2022-08-02T23:01:24.487Z,23.33
2022-08-02T23:03:51.442Z,27.33
2022-08-02T23:06:19.326Z,23.45
2022-08-02T23:08:50.033Z,23.40
2022-08-02T23:11:17.108Z,25.73
2022-08-02T23:13:44.147Z,23.85
2022-08-02T23:16:29.493Z,25.08
2022-08-02T23:19:14.811Z,19.80
2022-08-02T23:22:00.859Z,22.23
2022-08-02T23:24:28.712Z,19.30
2022-08-02T23:26:55.642Z,19.63
2022-08-02T23:29:22.709Z,16.20
2022-08-02T23:31:49.675Z,17.48
2022-08-02T23:34:17.587Z,16.98
2022-08-02T23:36:44.587Z,17.38
2022-08-02T23:39:11.631Z,14.80
2022-08-02T23:41:39.964Z,16.48
2022-08-02T23:44:15.162Z,15.48
2022-08-02T23:46:44.547Z,15.27
2022-08-02T23:49:12.498Z,15.10
2022-08-02T23:51:39.612Z,15.13
2022-08-02T23:54:06.534Z,13.88
2022-08-02T23:56:33.580Z,15.63
2022-08-02T23:59:00.502Z,18.48
